sensor_id;sensor_type;location;lat;lon;timestamp;pressure;altitude;pressure_sealevel;temperature;humidity
78717;BME280;68045;50.042;14.432;2023-04-01T00:01:49;96671.41;;;8.88;72.46
78717;BME280;68045;50.042;14.432;2023-04-01T00:05:51;96674.59;;;8.90;72.53
78717;BME280;68045;50.042;14.432;2023-04-01T00:09:52;96670.66;;;8.97;71.98
78717;BME280;68045;50.042;14.432;2023-04-01T00:13:53;96681.44;;;9.01;71.54
78717;BME280;68045;50.042;14.432;2023-04-01T00:17:54;96673.28;;;8.97;71.77
78717;BME280;68045;50.042;14.432;2023-04-01T00:21:55;96668.56;;;8.99;71.38
78717;BME280;68045;50.042;14.432;2023-04-01T00:26:00;96664.09;;;9.00;71.42
78717;BME280;68045;50.042;14.432;2023-04-01T00:30:02;96674.09;;;9.03;70.85
78717;BME280;68045;50.042;14.432;2023-04-01T00:34:03;96659.91;;;9.04;70.97
78717;BME280;68045;50.042;14.432;2023-04-01T00:38:05;96656.97;;;8.95;71.35
78717;BME280;68045;50.042;14.432;2023-04-01T00:42:08;96670.13;;;9.00;70.87
78717;BME280;68045;50.042;14.432;2023-04-01T00:46:10;96671.72;;;8.96;70.79
78717;BME280;68045;50.042;14.432;2023-04-01T00:50:12;96668.84;;;9.03;70.67
78717;BME280;68045;50.042;14.432;2023-04-01T00:54:15;96658.56;;;8.96;70.83
78717;BME280;68045;50.042;14.432;2023-04-01T00:58:18;96663.50;;;8.83;70.97
78717;BME280;68045;50.042;14.432;2023-04-01T01:02:22;96659.03;;;8.78;71.59
78717;BME280;68045;50.042;14.432;2023-04-01T01:06:43;96655.03;;;8.70;71.89
78717;BME280;68045;50.042;14.432;2023-04-01T01:10:49;96673.16;;;8.67;71.72
78717;BME280;68045;50.042;14.432;2023-04-01T01:19:00;96665.81;;;8.64;72.08
78717;BME280;68045;50.042;14.432;2023-04-01T01:27:56;96662.34;;;8.58;72.27
78717;BME280;68045;50.042;14.432;2023-04-01T01:36:18;96663.94;;;8.59;71.99
78717;BME280;68045;50.042;14.432;2023-04-01T01:40:22;96655.84;;;8.71;71.56
78717;BME280;68045;50.042;14.432;2023-04-01T01:44:28;96650.56;;;8.61;72.58
78717;BME280;68045;50.042;14.432;2023-04-01T01:48:31;96656.91;;;8.75;71.70
78717;BME280;68045;50.042;14.432;2023-04-01T01:52:33;96656.91;;;8.75;72.08
78717;BME280;68045;50.042;14.432;2023-04-01T01:56:35;96655.34;;;8.74;71.76
78717;BME280;68045;50.042;14.432;2023-04-01T02:00:37;96656.88;;;8.70;72.51
78717;BME280;68045;50.042;14.432;2023-04-01T02:04:40;96649.00;;;8.70;72.49
78717;BME280;68045;50.042;14.432;2023-04-01T02:08:50;96656.09;;;8.69;72.68
78717;BME280;68045;50.042;14.432;2023-04-01T02:12:56;96650.81;;;8.64;73.24
78717;BME280;68045;50.042;14.432;2023-04-01T02:17:05;96646.31;;;8.60;73.53
78717;BME280;68045;50.042;14.432;2023-04-01T02:21:08;96653.19;;;8.61;73.70
78717;BME280;68045;50.042;14.432;2023-04-01T02:25:14;96651.03;;;8.58;73.61
78717;BME280;68045;50.042;14.432;2023-04-01T02:29:18;96661.00;;;8.50;73.86
78717;BME280;68045;50.042;14.432;2023-04-01T02:33:21;96670.47;;;8.51;73.87
78717;BME280;68045;50.042;14.432;2023-04-01T02:37:24;96663.88;;;8.44;74.26
78717;BME280;68045;50.042;14.432;2023-04-01T02:41:25;96675.72;;;8.46;74.41
78717;BME280;68045;50.042;14.432;2023-04-01T02:45:26;96682.03;;;8.50;74.27
78717;BME280;68045;50.042;14.432;2023-04-01T02:49:28;96684.91;;;8.44;74.28
78717;BME280;68045;50.042;14.432;2023-04-01T02:53:29;96693.34;;;8.51;74.06
78717;BME280;68045;50.042;14.432;2023-04-01T02:57:30;96693.06;;;8.47;74.25
78717;BME280;68045;50.042;14.432;2023-04-01T03:06:45;96699.94;;;8.53;73.50
78717;BME280;68045;50.042;14.432;2023-04-01T03:10:46;96703.88;;;8.51;73.50
78717;BME280;68045;50.042;14.432;2023-04-01T03:14:47;96702.28;;;8.50;73.86
78717;BME280;68045;50.042;14.432;2023-04-01T03:18:48;96705.22;;;8.53;73.08
78717;BME280;68045;50.042;14.432;2023-04-01T03:22:52;96697.09;;;8.60;72.54
78717;BME280;68045;50.042;14.432;2023-04-01T03:26:53;96697.84;;;8.56;72.85
78717;BME280;68045;50.042;14.432;2023-04-01T03:30:54;96707.34;;;8.62;72.43
78717;BME280;68045;50.042;14.432;2023-04-01T03:34:55;96700.50;;;8.61;72.55
78717;BME280;68045;50.042;14.432;2023-04-01T03:38:57;96703.94;;;8.61;72.29
78717;BME280;68045;50.042;14.432;2023-04-01T03:43:07;96711.03;;;8.66;72.30
78717;BME280;68045;50.042;14.432;2023-04-01T03:47:12;96718.94;;;8.66;72.36
78717;BME280;68045;50.042;14.432;2023-04-01T03:51:13;96715.00;;;8.68;72.16
78717;BME280;68045;50.042;14.432;2023-04-01T03:55:15;96731.84;;;8.72;71.55
78717;BME280;68045;50.042;14.432;2023-04-01T03:59:16;96721.09;;;8.74;71.82
78717;BME280;68045;50.042;14.432;2023-04-01T04:03:17;96732.19;;;8.81;71.33
78717;BME280;68045;50.042;14.432;2023-04-01T04:07:18;96725.31;;;8.75;71.64
78717;BME280;68045;50.042;14.432;2023-04-01T04:11:36;96733.44;;;8.73;71.80
78717;BME280;68045;50.042;14.432;2023-04-01T04:15:38;96743.44;;;8.76;71.19
78717;BME280;68045;50.042;14.432;2023-04-01T04:19:41;96745.56;;;8.74;71.51
78717;BME280;68045;50.042;14.432;2023-04-01T04:23:44;96741.88;;;8.75;71.40
78717;BME280;68045;50.042;14.432;2023-04-01T04:27:49;96748.41;;;8.68;71.63
78717;BME280;68045;50.042;14.432;2023-04-01T04:31:50;96746.06;;;8.71;71.57
78717;BME280;68045;50.042;14.432;2023-04-01T04:35:55;96752.88;;;8.72;71.49
78717;BME280;68045;50.042;14.432;2023-04-01T04:39:57;96755.75;;;8.66;71.62
78717;BME280;68045;50.042;14.432;2023-04-01T04:43:58;96750.78;;;8.69;72.08
78717;BME280;68045;50.042;14.432;2023-04-01T04:48:01;96756.84;;;8.70;72.18
78717;BME280;68045;50.042;14.432;2023-04-01T04:52:05;96743.16;;;8.68;71.92
78717;BME280;68045;50.042;14.432;2023-04-01T04:56:07;96758.59;;;8.59;72.26
78717;BME280;68045;50.042;14.432;2023-04-01T05:00:51;96749.38;;;8.57;72.59
78717;BME280;68045;50.042;14.432;2023-04-01T05:04:57;96762.53;;;8.57;72.43
78717;BME280;68045;50.042;14.432;2023-04-01T05:08:59;96755.16;;;8.53;72.45
78717;BME280;68045;50.042;14.432;2023-04-01T05:13:01;96765.66;;;8.48;72.59
78717;BME280;68045;50.042;14.432;2023-04-01T05:17:02;96766.44;;;8.49;72.90
78717;BME280;68045;50.042;14.432;2023-04-01T05:21:10;96772.22;;;8.51;72.73
78717;BME280;68045;50.042;14.432;2023-04-01T05:25:11;96764.91;;;8.53;72.70
78717;BME280;68045;50.042;14.432;2023-04-01T05:29:13;96778.03;;;8.53;72.43
78717;BME280;68045;50.042;14.432;2023-04-01T05:33:15;96781.94;;;8.50;72.98
78717;BME280;68045;50.042;14.432;2023-04-01T05:37:16;96782.00;;;8.56;72.59
78717;BME280;68045;50.042;14.432;2023-04-01T05:41:18;96779.63;;;8.54;72.60
78717;BME280;68045;50.042;14.432;2023-04-01T05:45:20;96771.94;;;8.47;72.79
78717;BME280;68045;50.042;14.432;2023-04-01T05:49:48;96781.47;;;8.53;73.15
78717;BME280;68045;50.042;14.432;2023-04-01T05:53:49;96778.28;;;8.51;73.00
78717;BME280;68045;50.042;14.432;2023-04-01T05:57:50;96777.56;;;8.61;72.25
78717;BME280;68045;50.042;14.432;2023-04-01T06:01:52;96777.09;;;8.69;72.04
78717;BME280;68045;50.042;14.432;2023-04-01T06:05:54;96774.19;;;8.71;71.54
78717;BME280;68045;50.042;14.432;2023-04-01T06:09:55;96784.22;;;8.79;71.84
78717;BME280;68045;50.042;14.432;2023-04-01T06:14:28;96789.56;;;8.89;70.90
78717;BME280;68045;50.042;14.432;2023-04-01T06:27:50;96786.78;;;9.21;69.28
78717;BME280;68045;50.042;14.432;2023-04-01T06:32:30;96789.72;;;9.25;69.25
78717;BME280;68045;50.042;14.432;2023-04-01T06:54:49;96804.91;;;9.90;66.65
78717;BME280;68045;50.042;14.432;2023-04-01T06:59:19;96800.72;;;9.95;66.57
78717;BME280;68045;50.042;14.432;2023-04-01T07:03:33;96799.13;;;10.09;66.57
78717;BME280;68045;50.042;14.432;2023-04-01T07:07:44;96795.94;;;10.07;66.64
78717;BME280;68045;50.042;14.432;2023-04-01T07:11:48;96801.75;;;9.88;66.75
78717;BME280;68045;50.042;14.432;2023-04-01T07:20:36;96814.72;;;10.31;65.59
78717;BME280;68045;50.042;14.432;2023-04-01T07:24:41;96835.28;;;10.34;64.51
78717;BME280;68045;50.042;14.432;2023-04-01T07:28:45;96819.19;;;10.56;63.82
78717;BME280;68045;50.042;14.432;2023-04-01T07:50:35;96819.31;;;11.25;60.69
78717;BME280;68045;50.042;14.432;2023-04-01T07:55:13;96832.78;;;11.29;60.03
78717;BME280;68045;50.042;14.432;2023-04-01T08:00:05;96830.16;;;11.29;60.69
78717;BME280;68045;50.042;14.432;2023-04-01T08:04:48;96833.94;;;10.87;60.61
78717;BME280;68045;50.042;14.432;2023-04-01T08:14:25;96842.88;;;11.07;60.99
78717;BME280;68045;50.042;14.432;2023-04-01T08:23:07;96847.28;;;11.37;59.19
78717;BME280;68045;50.042;14.432;2023-04-01T08:31:19;96845.66;;;12.05;57.61
78717;BME280;68045;50.042;14.432;2023-04-01T08:35:30;96848.09;;;12.36;56.01
78717;BME280;68045;50.042;14.432;2023-04-01T08:39:48;96840.75;;;12.28;54.52
78717;BME280;68045;50.042;14.432;2023-04-01T08:53:00;96846.50;;;11.96;55.35
78717;BME280;68045;50.042;14.432;2023-04-01T09:06:44;96838.88;;;12.33;54.94
78717;BME280;68045;50.042;14.432;2023-04-01T09:11:06;96840.47;;;12.29;54.63
78717;BME280;68045;50.042;14.432;2023-04-01T09:15:37;96847.34;;;12.30;53.95
78717;BME280;68045;50.042;14.432;2023-04-01T09:24:16;96845.94;;;12.43;54.12
78717;BME280;68045;50.042;14.432;2023-04-01T09:37:34;96855.28;;;12.30;52.86
78717;BME280;68045;50.042;14.432;2023-04-01T09:46:40;96846.66;;;12.15;53.02
78717;BME280;68045;50.042;14.432;2023-04-01T10:04:45;96849.75;;;13.43;51.14
78717;BME280;68045;50.042;14.432;2023-04-01T10:09:19;96853.88;;;13.01;51.09
78717;BME280;68045;50.042;14.432;2023-04-01T10:31:47;96872.75;;;12.65;51.80
78717;BME280;68045;50.042;14.432;2023-04-01T11:08:37;96866.91;;;12.34;51.60
78717;BME280;68045;50.042;14.432;2023-04-01T11:35:39;96868.56;;;12.59;52.74
78717;BME280;68045;50.042;14.432;2023-04-01T11:44:20;96884.84;;;12.77;50.46
78717;BME280;68045;50.042;14.432;2023-04-01T11:53:23;96854.78;;;13.68;49.83
78717;BME280;68045;50.042;14.432;2023-04-01T12:07:02;96859.19;;;13.01;51.92
78717;BME280;68045;50.042;14.432;2023-04-01T12:15:31;96873.06;;;14.45;47.96
78717;BME280;68045;50.042;14.432;2023-04-01T12:20:16;96883.75;;;17.19;41.09
78717;BME280;68045;50.042;14.432;2023-04-01T12:37:50;96882.91;;;13.64;50.13
78717;BME280;68045;50.042;14.432;2023-04-01T12:46:16;96886.63;;;13.10;52.69
78717;BME280;68045;50.042;14.432;2023-04-01T12:50:33;96886.38;;;13.12;53.13
78717;BME280;68045;50.042;14.432;2023-04-01T12:54:59;96884.88;;;13.30;51.84
78717;BME280;68045;50.042;14.432;2023-04-01T13:38:37;96874.81;;;14.55;47.94
78717;BME280;68045;50.042;14.432;2023-04-01T13:42:47;96897.28;;;13.82;48.19
78717;BME280;68045;50.042;14.432;2023-04-01T13:47:05;96881.00;;;13.70;48.82
78717;BME280;68045;50.042;14.432;2023-04-01T13:55:23;96877.94;;;14.00;47.99
78717;BME280;68045;50.042;14.432;2023-04-01T14:17:16;96871.56;;;14.91;46.22
78717;BME280;68045;50.042;14.432;2023-04-01T14:35:05;96905.84;;;12.97;53.26
78717;BME280;68045;50.042;14.432;2023-04-01T14:48:28;96911.38;;;13.01;51.50
78717;BME280;68045;50.042;14.432;2023-04-01T14:52:35;96896.50;;;13.05;51.87
78717;BME280;68045;50.042;14.432;2023-04-01T14:56:51;96894.31;;;12.83;52.97
78717;BME280;68045;50.042;14.432;2023-04-01T15:09:43;96913.94;;;13.11;53.53
78717;BME280;68045;50.042;14.432;2023-04-01T15:26:49;96938.44;;;12.14;57.49
78717;BME280;68045;50.042;14.432;2023-04-01T15:45:16;96933.94;;;12.20;58.40
78717;BME280;68045;50.042;14.432;2023-04-01T15:53:47;96927.66;;;12.05;57.56
78717;BME280;68045;50.042;14.432;2023-04-01T16:15:28;96953.81;;;12.07;56.48
78717;BME280;68045;50.042;14.432;2023-04-01T16:24:10;96955.47;;;11.93;57.36
78717;BME280;68045;50.042;14.432;2023-04-01T16:28:23;96957.00;;;12.04;56.92
78717;BME280;68045;50.042;14.432;2023-04-01T16:32:45;96953.34;;;11.95;57.35
78717;BME280;68045;50.042;14.432;2023-04-01T16:37:07;96968.47;;;11.84;57.65
78717;BME280;68045;50.042;14.432;2023-04-01T16:41:23;96972.72;;;11.60;58.63
78717;BME280;68045;50.042;14.432;2023-04-01T16:49:40;96977.75;;;11.41;59.40
78717;BME280;68045;50.042;14.432;2023-04-01T16:53:49;96982.03;;;11.21;60.76
78717;BME280;68045;50.042;14.432;2023-04-01T16:57:57;96983.84;;;10.90;61.81
78717;BME280;68045;50.042;14.432;2023-04-01T17:15:04;97024.22;;;10.65;64.71
78717;BME280;68045;50.042;14.432;2023-04-01T17:27:35;97026.53;;;10.36;66.54
78717;BME280;68045;50.042;14.432;2023-04-01T17:53:18;97048.94;;;9.91;69.85
78717;BME280;68045;50.042;14.432;2023-04-01T17:57:59;97055.34;;;10.01;69.70
78717;BME280;68045;50.042;14.432;2023-04-01T18:03:07;97059.56;;;10.07;69.46
78717;BME280;68045;50.042;14.432;2023-04-01T18:15:36;97089.00;;;9.94;70.77
78717;BME280;68045;50.042;14.432;2023-04-01T18:24:18;97092.28;;;9.69;71.34
78717;BME280;68045;50.042;14.432;2023-04-01T18:32:43;97103.56;;;9.64;71.43
78717;BME280;68045;50.042;14.432;2023-04-01T18:36:53;97099.81;;;9.55;71.61
78717;BME280;68045;50.042;14.432;2023-04-01T18:45:40;97117.09;;;9.41;72.10
78717;BME280;68045;50.042;14.432;2023-04-01T18:49:46;97124.47;;;9.44;71.48
78717;BME280;68045;50.042;14.432;2023-04-01T18:54:00;97128.72;;;9.45;71.89
78717;BME280;68045;50.042;14.432;2023-04-01T19:02:38;97129.75;;;9.44;71.99
78717;BME280;68045;50.042;14.432;2023-04-01T19:06:50;97135.22;;;9.37;72.32
78717;BME280;68045;50.042;14.432;2023-04-01T19:15:49;97143.75;;;9.22;73.27
78717;BME280;68045;50.042;14.432;2023-04-01T19:37:16;97151.91;;;9.21;73.97
78717;BME280;68045;50.042;14.432;2023-04-01T19:41:53;97150.06;;;9.21;73.70
78717;BME280;68045;50.042;14.432;2023-04-01T19:50:27;97160.81;;;9.15;74.24
78717;BME280;68045;50.042;14.432;2023-04-01T19:59:14;97171.50;;;9.03;75.44
78717;BME280;68045;50.042;14.432;2023-04-01T20:03:40;97162.28;;;9.05;75.01
78717;BME280;68045;50.042;14.432;2023-04-01T20:07:52;97172.03;;;9.05;75.48
78717;BME280;68045;50.042;14.432;2023-04-01T20:12:04;97172.03;;;9.05;75.34
78717;BME280;68045;50.042;14.432;2023-04-01T20:16:11;97170.72;;;9.07;75.66
78717;BME280;68045;50.042;14.432;2023-04-01T20:37:42;97178.19;;;8.89;76.51
78717;BME280;68045;50.042;14.432;2023-04-01T20:41:27;97188.44;;;8.90;76.75
78717;BME280;68045;50.042;14.432;2023-04-01T20:58:35;97189.41;;;8.84;76.90
78717;BME280;68045;50.042;14.432;2023-04-01T21:33:17;97217.22;;;8.75;77.78
78717;BME280;68045;50.042;14.432;2023-04-01T21:37:36;97214.44;;;8.65;78.05
78717;BME280;68045;50.042;14.432;2023-04-01T21:46:40;97229.97;;;8.66;78.17
78717;BME280;68045;50.042;14.432;2023-04-01T21:51:08;97217.59;;;8.67;78.09
78717;BME280;68045;50.042;14.432;2023-04-01T22:08:51;97231.69;;;8.77;78.13
78717;BME280;68045;50.042;14.432;2023-04-01T22:13:11;97232.91;;;8.70;77.99
78717;BME280;68045;50.042;14.432;2023-04-01T22:17:26;97238.97;;;8.70;78.35
78717;BME280;68045;50.042;14.432;2023-04-01T22:21:43;97242.66;;;8.69;78.14
78717;BME280;68045;50.042;14.432;2023-04-01T22:26:15;97236.84;;;8.67;78.29
78717;BME280;68045;50.042;14.432;2023-04-01T22:30:32;97245.91;;;8.76;78.23
78717;BME280;68045;50.042;14.432;2023-04-01T22:34:54;97244.06;;;8.77;77.91
78717;BME280;68045;50.042;14.432;2023-04-01T22:43:15;97254.56;;;8.77;78.28
78717;BME280;68045;50.042;14.432;2023-04-01T22:47:42;97248.81;;;8.80;78.04
78717;BME280;68045;50.042;14.432;2023-04-01T22:52:09;97250.38;;;8.76;78.41
78717;BME280;68045;50.042;14.432;2023-04-01T22:56:20;97252.13;;;8.70;78.33
78717;BME280;68045;50.042;14.432;2023-04-01T23:00:26;97252.28;;;8.64;78.49
78717;BME280;68045;50.042;14.432;2023-04-01T23:04:34;97253.41;;;8.68;78.92
78717;BME280;68045;50.042;14.432;2023-04-01T23:09:03;97255.69;;;8.81;77.99
78717;BME280;68045;50.042;14.432;2023-04-01T23:13:10;97261.44;;;8.78;78.36
78717;BME280;68045;50.042;14.432;2023-04-01T23:17:25;97260.75;;;8.88;78.25
78717;BME280;68045;50.042;14.432;2023-04-01T23:21:40;97267.75;;;8.99;77.62
78717;BME280;68045;50.042;14.432;2023-04-01T23:30:02;97277.41;;;8.93;77.70
78717;BME280;68045;50.042;14.432;2023-04-01T23:34:34;97280.63;;;8.95;77.50
78717;BME280;68045;50.042;14.432;2023-04-01T23:38:37;97290.81;;;8.92;78.14
78717;BME280;68045;50.042;14.432;2023-04-01T23:42:41;97287.03;;;8.83;78.27
78717;BME280;68045;50.042;14.432;2023-04-01T23:46:44;97291.91;;;8.74;78.90
78717;BME280;68045;50.042;14.432;2023-04-01T23:50:46;97292.44;;;8.76;79.25
78717;BME280;68045;50.042;14.432;2023-04-01T23:55:08;97301.31;;;8.70;79.65
78717;BME280;68045;50.042;14.432;2023-04-01T23:59:23;97298.97;;;8.73;79.82
